sensor_id;sensor_type;location;lat;lon;timestamp;temperature;humidity
43009;DHT22;28634;45.454;11.106;2022-09-09T00:00:32;26.60;56.60
43009;DHT22;28634;45.454;11.106;2022-09-09T00:03:25;26.60;56.60
43009;DHT22;28634;45.454;11.106;2022-09-09T00:08:56;26.40;56.80
43009;DHT22;28634;45.454;11.106;2022-09-09T00:14:41;26.50;56.60
43009;DHT22;28634;45.454;11.106;2022-09-09T00:17:38;26.60;56.50
43009;DHT22;28634;45.454;11.106;2022-09-09T00:20:24;26.70;56.00
43009;DHT22;28634;45.454;11.106;2022-09-09T00:25:40;26.50;56.70
43009;DHT22;28634;45.454;11.106;2022-09-09T00:28:20;26.40;56.70
43009;DHT22;28634;45.454;11.106;2022-09-09T00:30:49;26.40;56.80
43009;DHT22;28634;45.454;11.106;2022-09-09T00:33:22;26.40;56.90
43009;DHT22;28634;45.454;11.106;2022-09-09T00:35:53;26.40;56.70
43009;DHT22;28634;45.454;11.106;2022-09-09T00:41:22;26.40;56.60
43009;DHT22;28634;45.454;11.106;2022-09-09T00:44:00;26.30;56.60
43009;DHT22;28634;45.454;11.106;2022-09-09T00:46:48;26.30;56.70
43009;DHT22;28634;45.454;11.106;2022-09-09T00:49:47;26.30;56.70
43009;DHT22;28634;45.454;11.106;2022-09-09T00:52:39;26.30;56.60
43009;DHT22;28634;45.454;11.106;2022-09-09T00:57:45;26.20;56.60
43009;DHT22;28634;45.454;11.106;2022-09-09T01:00:29;26.20;56.70
43009;DHT22;28634;45.454;11.106;2022-09-09T01:05:44;26.20;56.80
43009;DHT22;28634;45.454;11.106;2022-09-09T01:10:55;26.20;56.80
43009;DHT22;28634;45.454;11.106;2022-09-09T01:13:30;26.10;56.80
43009;DHT22;28634;45.454;11.106;2022-09-09T01:15:59;26.10;56.70
43009;DHT22;28634;45.454;11.106;2022-09-09T01:18:32;26.00;56.70
43009;DHT22;28634;45.454;11.106;2022-09-09T01:26:39;25.80;57.50
43009;DHT22;28634;45.454;11.106;2022-09-09T01:29:14;25.70;57.70
43009;DHT22;28634;45.454;11.106;2022-09-09T01:32:35;25.70;57.70
43009;DHT22;28634;45.454;11.106;2022-09-09T01:34:50;25.80;57.40
43009;DHT22;28634;45.454;11.106;2022-09-09T01:37:18;25.80;57.20
43009;DHT22;28634;45.454;11.106;2022-09-09T01:39:45;25.80;57.30
43009;DHT22;28634;45.454;11.106;2022-09-09T01:42:15;25.90;57.00
43009;DHT22;28634;45.454;11.106;2022-09-09T01:44:42;25.80;56.50
43009;DHT22;28634;45.454;11.106;2022-09-09T01:47:09;25.90;56.60
43009;DHT22;28634;45.454;11.106;2022-09-09T01:49:36;25.80;56.80
43009;DHT22;28634;45.454;11.106;2022-09-09T01:52:05;25.80;56.60
43009;DHT22;28634;45.454;11.106;2022-09-09T01:54:33;25.90;56.50
43009;DHT22;28634;45.454;11.106;2022-09-09T01:59:48;25.90;56.20
43009;DHT22;28634;45.454;11.106;2022-09-09T02:02:23;26.00;56.10
43009;DHT22;28634;45.454;11.106;2022-09-09T02:05:11;26.00;56.00
43009;DHT22;28634;45.454;11.106;2022-09-09T02:07:46;26.20;55.80
43009;DHT22;28634;45.454;11.106;2022-09-09T02:10:30;26.20;55.60
43009;DHT22;28634;45.454;11.106;2022-09-09T02:13:19;26.40;55.40
43009;DHT22;28634;45.454;11.106;2022-09-09T02:16:05;26.50;55.00
43009;DHT22;28634;45.454;11.106;2022-09-09T02:18:46;26.60;54.80
43009;DHT22;28634;45.454;11.106;2022-09-09T02:21:17;26.60;54.80
43009;DHT22;28634;45.454;11.106;2022-09-09T02:23:47;26.60;54.80
43009;DHT22;28634;45.454;11.106;2022-09-09T02:26:16;26.70;54.80
43009;DHT22;28634;45.454;11.106;2022-09-09T02:28:51;26.70;54.90
43009;DHT22;28634;45.454;11.106;2022-09-09T02:31:22;26.70;54.90
43009;DHT22;28634;45.454;11.106;2022-09-09T02:34:01;26.70;54.90
43009;DHT22;28634;45.454;11.106;2022-09-09T02:36:32;26.70;54.80
43009;DHT22;28634;45.454;11.106;2022-09-09T02:39:01;26.70;55.00
43009;DHT22;28634;45.454;11.106;2022-09-09T02:41:35;26.80;55.10
43009;DHT22;28634;45.454;11.106;2022-09-09T02:44:05;26.70;55.00
43009;DHT22;28634;45.454;11.106;2022-09-09T02:49:40;26.70;55.00
43009;DHT22;28634;45.454;11.106;2022-09-09T02:52:19;26.80;54.90
43009;DHT22;28634;45.454;11.106;2022-09-09T02:54:48;26.80;55.00
43009;DHT22;28634;45.454;11.106;2022-09-09T02:57:38;26.70;55.00
43009;DHT22;28634;45.454;11.106;2022-09-09T03:00:06;26.80;54.80
43009;DHT22;28634;45.454;11.106;2022-09-09T03:02:33;26.80;54.90
43009;DHT22;28634;45.454;11.106;2022-09-09T03:05:00;26.80;54.90
43009;DHT22;28634;45.454;11.106;2022-09-09T03:07:27;26.80;54.80
43009;DHT22;28634;45.454;11.106;2022-09-09T03:09:54;26.80;54.80
43009;DHT22;28634;45.454;11.106;2022-09-09T03:12:21;26.80;54.80
43009;DHT22;28634;45.454;11.106;2022-09-09T03:14:48;26.90;54.80
43009;DHT22;28634;45.454;11.106;2022-09-09T03:17:15;26.90;54.80
43009;DHT22;28634;45.454;11.106;2022-09-09T03:19:43;27.00;54.80
43009;DHT22;28634;45.454;11.106;2022-09-09T03:22:11;26.90;54.90
43009;DHT22;28634;45.454;11.106;2022-09-09T03:24:38;26.90;55.00
43009;DHT22;28634;45.454;11.106;2022-09-09T03:27:05;26.90;55.10
43009;DHT22;28634;45.454;11.106;2022-09-09T03:29:33;26.90;55.10
43009;DHT22;28634;45.454;11.106;2022-09-09T03:31:59;27.00;54.90
43009;DHT22;28634;45.454;11.106;2022-09-09T03:34:27;27.00;54.80
43009;DHT22;28634;45.454;11.106;2022-09-09T03:36:53;27.00;55.00
43009;DHT22;28634;45.454;11.106;2022-09-09T03:39:20;26.90;55.30
43009;DHT22;28634;45.454;11.106;2022-09-09T03:41:47;27.00;55.10
43009;DHT22;28634;45.454;11.106;2022-09-09T03:44:15;27.00;54.90
43009;DHT22;28634;45.454;11.106;2022-09-09T03:46:42;27.00;54.90
43009;DHT22;28634;45.454;11.106;2022-09-09T03:49:09;27.00;55.00
43009;DHT22;28634;45.454;11.106;2022-09-09T03:51:37;26.90;55.10
43009;DHT22;28634;45.454;11.106;2022-09-09T03:54:05;26.90;55.20
43009;DHT22;28634;45.454;11.106;2022-09-09T03:56:35;27.00;55.00
43009;DHT22;28634;45.454;11.106;2022-09-09T03:59:03;27.00;55.00
43009;DHT22;28634;45.454;11.106;2022-09-09T04:01:30;26.90;55.10
43009;DHT22;28634;45.454;11.106;2022-09-09T04:03:57;26.90;55.10
43009;DHT22;28634;45.454;11.106;2022-09-09T04:06:25;26.80;55.20
43009;DHT22;28634;45.454;11.106;2022-09-09T04:08:52;26.80;55.20
43009;DHT22;28634;45.454;11.106;2022-09-09T04:11:19;26.80;55.30
43009;DHT22;28634;45.454;11.106;2022-09-09T04:13:47;26.70;55.30
43009;DHT22;28634;45.454;11.106;2022-09-09T04:16:14;26.70;55.40
43009;DHT22;28634;45.454;11.106;2022-09-09T04:18:42;26.80;55.40
43009;DHT22;28634;45.454;11.106;2022-09-09T04:21:10;26.70;55.60
43009;DHT22;28634;45.454;11.106;2022-09-09T04:23:39;26.70;55.70
43009;DHT22;28634;45.454;11.106;2022-09-09T04:26:06;26.70;55.80
43009;DHT22;28634;45.454;11.106;2022-09-09T04:28:35;26.70;55.90
43009;DHT22;28634;45.454;11.106;2022-09-09T04:31:22;26.70;56.00
43009;DHT22;28634;45.454;11.106;2022-09-09T04:33:52;26.70;55.90
43009;DHT22;28634;45.454;11.106;2022-09-09T04:36:19;26.70;56.10
43009;DHT22;28634;45.454;11.106;2022-09-09T04:38:46;26.70;56.30
43009;DHT22;28634;45.454;11.106;2022-09-09T04:41:15;26.70;56.20
43009;DHT22;28634;45.454;11.106;2022-09-09T04:43:43;26.70;56.30
43009;DHT22;28634;45.454;11.106;2022-09-09T04:46:10;26.60;56.50
43009;DHT22;28634;45.454;11.106;2022-09-09T04:48:37;26.60;56.80
43009;DHT22;28634;45.454;11.106;2022-09-09T04:51:06;26.50;57.00
43009;DHT22;28634;45.454;11.106;2022-09-09T04:53:33;26.40;57.20
43009;DHT22;28634;45.454;11.106;2022-09-09T04:56:21;26.40;57.40
43009;DHT22;28634;45.454;11.106;2022-09-09T04:58:48;26.40;57.50
43009;DHT22;28634;45.454;11.106;2022-09-09T05:01:18;26.40;57.70
43009;DHT22;28634;45.454;11.106;2022-09-09T05:03:46;26.40;57.70
43009;DHT22;28634;45.454;11.106;2022-09-09T05:06:18;26.40;57.80
43009;DHT22;28634;45.454;11.106;2022-09-09T05:08:46;26.40;57.90
43009;DHT22;28634;45.454;11.106;2022-09-09T05:11:24;26.50;57.90
43009;DHT22;28634;45.454;11.106;2022-09-09T05:13:53;26.40;58.10
43009;DHT22;28634;45.454;11.106;2022-09-09T05:16:21;26.40;58.20
43009;DHT22;28634;45.454;11.106;2022-09-09T05:18:50;26.40;58.40
43009;DHT22;28634;45.454;11.106;2022-09-09T05:21:22;26.40;58.40
43009;DHT22;28634;45.454;11.106;2022-09-09T05:23:49;26.50;58.30
43009;DHT22;28634;45.454;11.106;2022-09-09T05:26:20;26.50;58.30
43009;DHT22;28634;45.454;11.106;2022-09-09T05:28:47;26.50;58.40
43009;DHT22;28634;45.454;11.106;2022-09-09T05:31:16;26.50;58.40
43009;DHT22;28634;45.454;11.106;2022-09-09T05:33:45;26.50;58.40
43009;DHT22;28634;45.454;11.106;2022-09-09T05:36:14;26.50;58.30
43009;DHT22;28634;45.454;11.106;2022-09-09T05:38:43;26.50;58.30
43009;DHT22;28634;45.454;11.106;2022-09-09T05:41:10;26.60;58.20
43009;DHT22;28634;45.454;11.106;2022-09-09T05:43:38;26.60;58.30
43009;DHT22;28634;45.454;11.106;2022-09-09T05:46:13;26.60;58.20
43009;DHT22;28634;45.454;11.106;2022-09-09T05:48:43;26.60;58.20
43009;DHT22;28634;45.454;11.106;2022-09-09T05:51:11;26.60;58.40
43009;DHT22;28634;45.454;11.106;2022-09-09T05:53:39;26.60;58.30
43009;DHT22;28634;45.454;11.106;2022-09-09T05:56:09;26.60;58.20
43009;DHT22;28634;45.454;11.106;2022-09-09T05:58:41;26.70;58.20
43009;DHT22;28634;45.454;11.106;2022-09-09T06:01:22;26.70;58.20
43009;DHT22;28634;45.454;11.106;2022-09-09T06:03:50;26.70;58.10
43009;DHT22;28634;45.454;11.106;2022-09-09T06:06:20;26.70;58.40
43009;DHT22;28634;45.454;11.106;2022-09-09T06:08:50;26.90;57.90
43009;DHT22;28634;45.454;11.106;2022-09-09T06:11:23;26.80;58.10
43009;DHT22;28634;45.454;11.106;2022-09-09T06:13:50;26.80;58.20
43009;DHT22;28634;45.454;11.106;2022-09-09T06:16:23;26.90;57.70
43009;DHT22;28634;45.454;11.106;2022-09-09T06:18:52;26.80;57.20
43009;DHT22;28634;45.454;11.106;2022-09-09T06:21:24;26.80;56.80
43009;DHT22;28634;45.454;11.106;2022-09-09T06:23:52;27.00;56.50
43009;DHT22;28634;45.454;11.106;2022-09-09T06:26:31;27.00;56.50
43009;DHT22;28634;45.454;11.106;2022-09-09T06:29:00;27.20;56.20
43009;DHT22;28634;45.454;11.106;2022-09-09T06:31:29;27.20;55.60
43009;DHT22;28634;45.454;11.106;2022-09-09T06:33:58;27.40;55.30
43009;DHT22;28634;45.454;11.106;2022-09-09T06:36:30;27.40;54.90
43009;DHT22;28634;45.454;11.106;2022-09-09T06:38:58;27.50;54.60
43009;DHT22;28634;45.454;11.106;2022-09-09T06:41:31;27.50;54.60
43009;DHT22;28634;45.454;11.106;2022-09-09T06:43:59;27.50;54.50
43009;DHT22;28634;45.454;11.106;2022-09-09T06:46:29;27.60;54.30
43009;DHT22;28634;45.454;11.106;2022-09-09T06:48:58;27.70;54.20
43009;DHT22;28634;45.454;11.106;2022-09-09T06:51:31;27.70;54.00
43009;DHT22;28634;45.454;11.106;2022-09-09T06:54:00;27.70;54.00
43009;DHT22;28634;45.454;11.106;2022-09-09T06:56:36;27.70;54.00
43009;DHT22;28634;45.454;11.106;2022-09-09T06:59:05;27.70;53.80
43009;DHT22;28634;45.454;11.106;2022-09-09T07:01:34;27.70;53.80
43009;DHT22;28634;45.454;11.106;2022-09-09T07:04:03;27.70;53.80
43009;DHT22;28634;45.454;11.106;2022-09-09T07:06:33;27.70;53.80
43009;DHT22;28634;45.454;11.106;2022-09-09T07:09:06;27.80;53.50
43009;DHT22;28634;45.454;11.106;2022-09-09T07:11:39;27.80;53.70
43009;DHT22;28634;45.454;11.106;2022-09-09T07:14:08;27.80;53.70
43009;DHT22;28634;45.454;11.106;2022-09-09T07:16:35;27.80;53.70
43009;DHT22;28634;45.454;11.106;2022-09-09T07:19:04;27.90;53.40
43009;DHT22;28634;45.454;11.106;2022-09-09T07:21:32;27.80;53.70
43009;DHT22;28634;45.454;11.106;2022-09-09T07:24:00;27.80;53.90
43009;DHT22;28634;45.454;11.106;2022-09-09T07:26:29;27.90;53.50
43009;DHT22;28634;45.454;11.106;2022-09-09T07:28:57;27.80;53.60
43009;DHT22;28634;45.454;11.106;2022-09-09T07:31:25;27.90;53.50
43009;DHT22;28634;45.454;11.106;2022-09-09T07:33:53;27.90;53.60
43009;DHT22;28634;45.454;11.106;2022-09-09T07:36:26;28.00;53.50
43009;DHT22;28634;45.454;11.106;2022-09-09T07:39:01;28.00;53.40
43009;DHT22;28634;45.454;11.106;2022-09-09T07:41:33;28.00;53.70
43009;DHT22;28634;45.454;11.106;2022-09-09T07:44:09;28.00;54.10
43009;DHT22;28634;45.454;11.106;2022-09-09T07:46:38;28.00;54.30
43009;DHT22;28634;45.454;11.106;2022-09-09T07:49:09;28.00;54.30
43009;DHT22;28634;45.454;11.106;2022-09-09T07:51:38;28.00;53.90
43009;DHT22;28634;45.454;11.106;2022-09-09T07:54:08;27.90;53.90
43009;DHT22;28634;45.454;11.106;2022-09-09T07:56:37;27.90;54.00
43009;DHT22;28634;45.454;11.106;2022-09-09T07:59:06;28.00;54.00
43009;DHT22;28634;45.454;11.106;2022-09-09T08:01:35;28.00;54.10
43009;DHT22;28634;45.454;11.106;2022-09-09T08:04:11;28.10;54.10
43009;DHT22;28634;45.454;11.106;2022-09-09T08:06:45;28.10;54.10
43009;DHT22;28634;45.454;11.106;2022-09-09T08:09:13;28.10;53.80
43009;DHT22;28634;45.454;11.106;2022-09-09T08:11:41;28.20;53.30
43009;DHT22;28634;45.454;11.106;2022-09-09T08:14:09;28.20;53.40
43009;DHT22;28634;45.454;11.106;2022-09-09T08:16:41;28.20;53.70
43009;DHT22;28634;45.454;11.106;2022-09-09T08:19:09;28.20;53.50
43009;DHT22;28634;45.454;11.106;2022-09-09T08:21:39;28.20;53.20
43009;DHT22;28634;45.454;11.106;2022-09-09T08:24:08;28.30;53.30
43009;DHT22;28634;45.454;11.106;2022-09-09T08:26:42;28.30;53.10
43009;DHT22;28634;45.454;11.106;2022-09-09T08:29:11;28.30;53.10
43009;DHT22;28634;45.454;11.106;2022-09-09T08:31:51;28.40;53.00
43009;DHT22;28634;45.454;11.106;2022-09-09T08:34:22;28.40;53.10
43009;DHT22;28634;45.454;11.106;2022-09-09T08:36:50;28.40;52.90
43009;DHT22;28634;45.454;11.106;2022-09-09T08:39:19;28.40;52.70
43009;DHT22;28634;45.454;11.106;2022-09-09T08:42:02;28.40;53.10
43009;DHT22;28634;45.454;11.106;2022-09-09T08:50:21;28.50;52.70
43009;DHT22;28634;45.454;11.106;2022-09-09T08:58:18;28.60;52.30
43009;DHT22;28634;45.454;11.106;2022-09-09T09:04:22;28.70;52.60
43009;DHT22;28634;45.454;11.106;2022-09-09T09:10:02;28.70;51.40
43009;DHT22;28634;45.454;11.106;2022-09-09T09:12:43;28.80;51.70
43009;DHT22;28634;45.454;11.106;2022-09-09T09:15:21;28.80;51.90
43009;DHT22;28634;45.454;11.106;2022-09-09T09:17:50;28.90;51.80
43009;DHT22;28634;45.454;11.106;2022-09-09T09:20:42;28.90;50.90
43009;DHT22;28634;45.454;11.106;2022-09-09T09:23:16;28.90;51.30
43009;DHT22;28634;45.454;11.106;2022-09-09T09:25:46;29.00;50.80
43009;DHT22;28634;45.454;11.106;2022-09-09T09:28:16;29.00;51.00
43009;DHT22;28634;45.454;11.106;2022-09-09T09:31:09;29.00;51.40
43009;DHT22;28634;45.454;11.106;2022-09-09T09:36:10;29.10;51.40
43009;DHT22;28634;45.454;11.106;2022-09-09T09:38:37;29.20;50.20
43009;DHT22;28634;45.454;11.106;2022-09-09T09:41:32;29.30;50.40
43009;DHT22;28634;45.454;11.106;2022-09-09T09:44:03;29.20;50.00
43009;DHT22;28634;45.454;11.106;2022-09-09T09:46:31;29.20;49.70
43009;DHT22;28634;45.454;11.106;2022-09-09T09:49:00;29.20;49.60
43009;DHT22;28634;45.454;11.106;2022-09-09T09:51:30;29.20;50.10
43009;DHT22;28634;45.454;11.106;2022-09-09T09:54:27;29.20;48.60
43009;DHT22;28634;45.454;11.106;2022-09-09T09:56:55;29.20;49.20
43009;DHT22;28634;45.454;11.106;2022-09-09T10:02:23;29.20;50.50
43009;DHT22;28634;45.454;11.106;2022-09-09T10:05:03;29.10;50.80
43009;DHT22;28634;45.454;11.106;2022-09-09T10:07:31;29.10;50.60
43009;DHT22;28634;45.454;11.106;2022-09-09T10:10:00;29.10;50.80
43009;DHT22;28634;45.454;11.106;2022-09-09T10:12:48;29.10;50.70
43009;DHT22;28634;45.454;11.106;2022-09-09T10:18:08;28.90;51.60
43009;DHT22;28634;45.454;11.106;2022-09-09T10:20:52;28.70;53.70
43009;DHT22;28634;45.454;11.106;2022-09-09T10:23:37;28.30;51.50
43009;DHT22;28634;45.454;11.106;2022-09-09T10:29:20;27.70;54.10
43009;DHT22;28634;45.454;11.106;2022-09-09T10:34:56;27.60;55.10
43009;DHT22;28634;45.454;11.106;2022-09-09T10:46:42;27.30;56.10
43009;DHT22;28634;45.454;11.106;2022-09-09T10:49:20;27.50;55.70
43009;DHT22;28634;45.454;11.106;2022-09-09T10:55:41;27.60;57.00
43009;DHT22;28634;45.454;11.106;2022-09-09T10:57:48;27.60;56.10
43009;DHT22;28634;45.454;11.106;2022-09-09T11:00:19;27.50;56.50
43009;DHT22;28634;45.454;11.106;2022-09-09T11:03:00;27.60;56.20
43009;DHT22;28634;45.454;11.106;2022-09-09T11:05:40;27.60;56.50
43009;DHT22;28634;45.454;11.106;2022-09-09T11:08:35;27.60;56.80
43009;DHT22;28634;45.454;11.106;2022-09-09T11:11:09;27.50;56.80
43009;DHT22;28634;45.454;11.106;2022-09-09T11:16:50;27.60;55.90
43009;DHT22;28634;45.454;11.106;2022-09-09T11:19:40;27.70;55.70
43009;DHT22;28634;45.454;11.106;2022-09-09T11:25:14;27.70;57.10
43009;DHT22;28634;45.454;11.106;2022-09-09T11:28:38;27.60;57.60
43009;DHT22;28634;45.454;11.106;2022-09-09T11:30:43;27.50;56.40
43009;DHT22;28634;45.454;11.106;2022-09-09T11:41:52;27.60;54.60
43009;DHT22;28634;45.454;11.106;2022-09-09T11:44:37;27.60;55.10
43009;DHT22;28634;45.454;11.106;2022-09-09T11:47:23;27.50;53.60
43009;DHT22;28634;45.454;11.106;2022-09-09T11:49:53;27.50;54.90
43009;DHT22;28634;45.454;11.106;2022-09-09T11:52:36;27.50;55.10
43009;DHT22;28634;45.454;11.106;2022-09-09T12:00:45;27.70;55.00
43009;DHT22;28634;45.454;11.106;2022-09-09T12:03:48;27.80;54.10
43009;DHT22;28634;45.454;11.106;2022-09-09T12:06:30;27.90;54.60
43009;DHT22;28634;45.454;11.106;2022-09-09T12:12:37;28.20;53.20
43009;DHT22;28634;45.454;11.106;2022-09-09T12:17:53;28.30;52.80
43009;DHT22;28634;45.454;11.106;2022-09-09T12:20:36;28.40;52.90
43009;DHT22;28634;45.454;11.106;2022-09-09T12:26:00;28.40;51.90
43009;DHT22;28634;45.454;11.106;2022-09-09T12:28:41;28.40;51.90
43009;DHT22;28634;45.454;11.106;2022-09-09T12:31:18;28.40;51.80
43009;DHT22;28634;45.454;11.106;2022-09-09T12:33:48;28.30;51.70
43009;DHT22;28634;45.454;11.106;2022-09-09T12:36:28;28.40;51.60
43009;DHT22;28634;45.454;11.106;2022-09-09T12:39:08;28.40;48.80
43009;DHT22;28634;45.454;11.106;2022-09-09T12:41:37;28.60;45.10
43009;DHT22;28634;45.454;11.106;2022-09-09T12:44:09;28.70;40.80
43009;DHT22;28634;45.454;11.106;2022-09-09T12:46:40;28.80;44.80
43009;DHT22;28634;45.454;11.106;2022-09-09T12:49:37;28.90;46.60
43009;DHT22;28634;45.454;11.106;2022-09-09T12:54:45;28.70;46.00
43009;DHT22;28634;45.454;11.106;2022-09-09T12:57:15;28.90;42.20
43009;DHT22;28634;45.454;11.106;2022-09-09T12:59:43;29.00;47.00
43009;DHT22;28634;45.454;11.106;2022-09-09T13:02:22;28.80;46.50
43009;DHT22;28634;45.454;11.106;2022-09-09T13:04:49;28.80;38.00
43009;DHT22;28634;45.454;11.106;2022-09-09T13:07:18;29.00;40.40
43009;DHT22;28634;45.454;11.106;2022-09-09T13:09:47;29.10;37.40
43009;DHT22;28634;45.454;11.106;2022-09-09T13:12:19;29.10;36.60
43009;DHT22;28634;45.454;11.106;2022-09-09T13:14:52;29.20;36.00
43009;DHT22;28634;45.454;11.106;2022-09-09T13:17:22;29.20;38.70
43009;DHT22;28634;45.454;11.106;2022-09-09T13:19:51;29.20;37.10
43009;DHT22;28634;45.454;11.106;2022-09-09T13:22:35;29.30;39.10
43009;DHT22;28634;45.454;11.106;2022-09-09T13:25:04;29.30;37.50
43009;DHT22;28634;45.454;11.106;2022-09-09T13:27:34;29.30;37.50
43009;DHT22;28634;45.454;11.106;2022-09-09T13:30:22;29.40;36.90
43009;DHT22;28634;45.454;11.106;2022-09-09T13:35:29;29.60;35.30
43009;DHT22;28634;45.454;11.106;2022-09-09T13:37:58;29.60;38.90
43009;DHT22;28634;45.454;11.106;2022-09-09T13:40:25;29.50;45.00
43009;DHT22;28634;45.454;11.106;2022-09-09T13:42:55;29.50;46.50
43009;DHT22;28634;45.454;11.106;2022-09-09T13:45:25;29.40;47.40
43009;DHT22;28634;45.454;11.106;2022-09-09T13:47:55;29.40;47.20
43009;DHT22;28634;45.454;11.106;2022-09-09T13:50:25;29.40;47.20
43009;DHT22;28634;45.454;11.106;2022-09-09T13:52:59;29.50;45.90
43009;DHT22;28634;45.454;11.106;2022-09-09T13:55:28;29.50;47.00
43009;DHT22;28634;45.454;11.106;2022-09-09T13:57:58;29.60;46.20
43009;DHT22;28634;45.454;11.106;2022-09-09T14:00:31;29.70;46.20
43009;DHT22;28634;45.454;11.106;2022-09-09T14:02:58;29.70;46.20
43009;DHT22;28634;45.454;11.106;2022-09-09T14:05:30;29.70;45.30
43009;DHT22;28634;45.454;11.106;2022-09-09T14:07:58;29.70;46.80
43009;DHT22;28634;45.454;11.106;2022-09-09T14:10:27;29.70;45.90
43009;DHT22;28634;45.454;11.106;2022-09-09T14:12:54;29.70;44.80
43009;DHT22;28634;45.454;11.106;2022-09-09T14:15:21;29.70;45.10
43009;DHT22;28634;45.454;11.106;2022-09-09T14:17:48;29.70;44.80
43009;DHT22;28634;45.454;11.106;2022-09-09T14:20:16;29.70;43.90
43009;DHT22;28634;45.454;11.106;2022-09-09T14:22:45;29.80;43.40
43009;DHT22;28634;45.454;11.106;2022-09-09T14:25:12;29.80;43.60
43009;DHT22;28634;45.454;11.106;2022-09-09T14:27:44;29.80;45.10
43009;DHT22;28634;45.454;11.106;2022-09-09T14:30:12;29.70;46.20
43009;DHT22;28634;45.454;11.106;2022-09-09T14:32:39;29.40;46.80
43009;DHT22;28634;45.454;11.106;2022-09-09T14:35:07;29.30;45.50
43009;DHT22;28634;45.454;11.106;2022-09-09T14:37:34;29.40;45.00
43009;DHT22;28634;45.454;11.106;2022-09-09T14:40:01;29.50;44.60
43009;DHT22;28634;45.454;11.106;2022-09-09T14:42:29;29.60;44.00
43009;DHT22;28634;45.454;11.106;2022-09-09T14:44:56;29.60;44.40
43009;DHT22;28634;45.454;11.106;2022-09-09T14:47:23;29.70;44.30
43009;DHT22;28634;45.454;11.106;2022-09-09T14:49:51;29.80;44.50
43009;DHT22;28634;45.454;11.106;2022-09-09T14:52:18;29.70;44.50
43009;DHT22;28634;45.454;11.106;2022-09-09T14:54:45;29.80;43.80
43009;DHT22;28634;45.454;11.106;2022-09-09T14:57:13;29.80;43.60
43009;DHT22;28634;45.454;11.106;2022-09-09T14:59:40;29.80;43.60
43009;DHT22;28634;45.454;11.106;2022-09-09T15:02:10;29.90;43.40
43009;DHT22;28634;45.454;11.106;2022-09-09T15:04:37;29.80;43.30
43009;DHT22;28634;45.454;11.106;2022-09-09T15:07:04;29.80;43.20
43009;DHT22;28634;45.454;11.106;2022-09-09T15:09:31;29.90;42.70
43009;DHT22;28634;45.454;11.106;2022-09-09T15:11:58;29.90;44.40
43009;DHT22;28634;45.454;11.106;2022-09-09T15:14:25;29.80;42.90
43009;DHT22;28634;45.454;11.106;2022-09-09T15:16:52;29.80;42.90
43009;DHT22;28634;45.454;11.106;2022-09-09T15:19:19;29.80;42.80
43009;DHT22;28634;45.454;11.106;2022-09-09T15:21:47;29.80;43.10
43009;DHT22;28634;45.454;11.106;2022-09-09T15:24:14;29.80;42.20
43009;DHT22;28634;45.454;11.106;2022-09-09T15:26:43;29.90;42.80
43009;DHT22;28634;45.454;11.106;2022-09-09T15:29:10;29.80;42.50
43009;DHT22;28634;45.454;11.106;2022-09-09T15:31:37;29.90;42.60
43009;DHT22;28634;45.454;11.106;2022-09-09T15:34:06;29.80;42.90
43009;DHT22;28634;45.454;11.106;2022-09-09T15:36:36;29.80;42.30
43009;DHT22;28634;45.454;11.106;2022-09-09T15:39:06;29.80;42.30
43009;DHT22;28634;45.454;11.106;2022-09-09T15:41:33;29.80;43.20
43009;DHT22;28634;45.454;11.106;2022-09-09T15:44:01;29.70;44.10
43009;DHT22;28634;45.454;11.106;2022-09-09T15:46:35;29.70;42.50
43009;DHT22;28634;45.454;11.106;2022-09-09T15:49:15;29.80;42.90
43009;DHT22;28634;45.454;11.106;2022-09-09T15:51:46;29.70;42.40
43009;DHT22;28634;45.454;11.106;2022-09-09T15:54:20;29.70;42.70
43009;DHT22;28634;45.454;11.106;2022-09-09T15:56:56;29.70;41.80
43009;DHT22;28634;45.454;11.106;2022-09-09T15:59:24;29.70;41.70
43009;DHT22;28634;45.454;11.106;2022-09-09T16:01:52;29.70;43.00
43009;DHT22;28634;45.454;11.106;2022-09-09T16:04:20;29.70;42.40
43009;DHT22;28634;45.454;11.106;2022-09-09T16:07:04;29.70;42.50
43009;DHT22;28634;45.454;11.106;2022-09-09T16:09:32;29.60;43.10
43009;DHT22;28634;45.454;11.106;2022-09-09T16:12:01;29.60;43.80
43009;DHT22;28634;45.454;11.106;2022-09-09T16:14:29;29.50;43.40
43009;DHT22;28634;45.454;11.106;2022-09-09T16:17:01;29.50;43.90
43009;DHT22;28634;45.454;11.106;2022-09-09T16:19:28;29.50;43.80
43009;DHT22;28634;45.454;11.106;2022-09-09T16:21:56;29.40;44.60
43009;DHT22;28634;45.454;11.106;2022-09-09T16:24:34;29.40;44.20
43009;DHT22;28634;45.454;11.106;2022-09-09T16:27:03;29.40;44.60
43009;DHT22;28634;45.454;11.106;2022-09-09T16:29:31;29.30;44.60
43009;DHT22;28634;45.454;11.106;2022-09-09T16:31:58;29.30;44.90
43009;DHT22;28634;45.454;11.106;2022-09-09T16:34:30;29.30;44.90
43009;DHT22;28634;45.454;11.106;2022-09-09T16:36:57;29.20;45.70
43009;DHT22;28634;45.454;11.106;2022-09-09T16:39:24;29.20;45.80
43009;DHT22;28634;45.454;11.106;2022-09-09T16:41:51;29.20;46.00
43009;DHT22;28634;45.454;11.106;2022-09-09T16:44:19;29.10;46.30
43009;DHT22;28634;45.454;11.106;2022-09-09T16:46:47;29.00;46.20
43009;DHT22;28634;45.454;11.106;2022-09-09T16:49:16;28.90;46.40
43009;DHT22;28634;45.454;11.106;2022-09-09T16:51:45;28.90;46.90
43009;DHT22;28634;45.454;11.106;2022-09-09T16:54:15;28.80;47.10
43009;DHT22;28634;45.454;11.106;2022-09-09T16:56:46;28.70;47.60
43009;DHT22;28634;45.454;11.106;2022-09-09T16:59:18;28.70;47.30
43009;DHT22;28634;45.454;11.106;2022-09-09T17:01:47;28.70;47.60
43009;DHT22;28634;45.454;11.106;2022-09-09T17:04:17;28.70;47.60
43009;DHT22;28634;45.454;11.106;2022-09-09T17:06:48;28.60;47.60
43009;DHT22;28634;45.454;11.106;2022-09-09T17:09:17;28.50;47.90
43009;DHT22;28634;45.454;11.106;2022-09-09T17:11:45;28.50;48.30
43009;DHT22;28634;45.454;11.106;2022-09-09T17:14:15;28.50;48.10
43009;DHT22;28634;45.454;11.106;2022-09-09T17:16:43;28.40;48.00
43009;DHT22;28634;45.454;11.106;2022-09-09T17:19:11;28.40;47.80
43009;DHT22;28634;45.454;11.106;2022-09-09T17:21:39;28.30;48.20
43009;DHT22;28634;45.454;11.106;2022-09-09T17:24:26;28.20;49.10
43009;DHT22;28634;45.454;11.106;2022-09-09T17:26:56;28.20;49.80
43009;DHT22;28634;45.454;11.106;2022-09-09T17:29:24;28.10;50.30
43009;DHT22;28634;45.454;11.106;2022-09-09T17:31:52;28.10;50.20
43009;DHT22;28634;45.454;11.106;2022-09-09T17:34:19;28.00;50.60